createdAt,value
2023-05-17T00:00:22.870Z,8.45
2023-05-17T00:03:10.969Z,6.90
2023-05-17T00:05:59.027Z,7.38
2023-05-17T00:08:47.015Z,8.40
2023-05-17T00:11:35.104Z,7.88
2023-05-17T00:14:23.138Z,7.03
2023-05-17T00:17:12.469Z,7.85
2023-05-17T00:20:00.463Z,7.15
2023-05-17T00:22:48.402Z,7.43
2023-05-17T00:25:36.617Z,9.57
2023-05-17T00:28:24.785Z,8.70
2023-05-17T00:31:12.865Z,8.93
2023-05-17T00:34:02.270Z,7.95
2023-05-17T00:36:51.373Z,8.15
2023-05-17T00:39:39.380Z,9.68
2023-05-17T00:42:27.351Z,7.97
2023-05-17T00:45:15.487Z,9.98
2023-05-17T00:48:03.475Z,9.55
2023-05-17T00:50:53.501Z,9.20
2023-05-17T00:53:41.718Z,9.07
2023-05-17T00:56:29.709Z,9.48
2023-05-17T00:59:18.620Z,10.02
2023-05-17T01:02:07.336Z,9.43
2023-05-17T01:04:55.514Z,9.23
2023-05-17T01:07:44.960Z,8.82
2023-05-17T01:10:42.381Z,7.05
2023-05-17T01:13:43.730Z,8.45
2023-05-17T01:16:37.048Z,8.10
2023-05-17T01:19:53.422Z,7.30
2023-05-17T01:22:52.394Z,7.32
2023-05-17T01:25:54.085Z,7.47
2023-05-17T01:28:46.411Z,8.00
2023-05-17T01:31:35.039Z,7.38
2023-05-17T01:34:27.094Z,7.15
2023-05-17T01:37:15.160Z,7.20
2023-05-17T01:40:03.492Z,7.65
2023-05-17T01:42:58.048Z,7.32
2023-05-17T01:48:50.791Z,7.43
2023-05-17T01:51:47.491Z,7.80
2023-05-17T01:54:40.488Z,7.35
2023-05-17T01:57:33.676Z,7.80
2023-05-17T02:00:25.350Z,7.57
2023-05-17T02:03:20.597Z,8.88
2023-05-17T02:06:09.013Z,7.80
2023-05-17T02:08:58.814Z,9.68
2023-05-17T02:11:46.814Z,9.85
2023-05-17T02:14:34.868Z,10.07
2023-05-17T02:17:23.108Z,10.00
2023-05-17T02:20:13.130Z,9.20
2023-05-17T02:23:01.061Z,10.32
2023-05-17T02:25:49.139Z,11.32
2023-05-17T02:28:37.223Z,11.40
2023-05-17T02:31:26.946Z,12.18
2023-05-17T02:34:14.970Z,11.82
2023-05-17T02:37:04.386Z,12.52
2023-05-17T02:39:52.412Z,13.48
2023-05-17T02:42:40.476Z,11.57
2023-05-17T02:45:28.541Z,14.82
2023-05-17T02:48:16.724Z,12.27
2023-05-17T02:51:04.821Z,13.80
2023-05-17T02:53:54.149Z,12.77
2023-05-17T02:56:42.138Z,13.38
2023-05-17T02:59:30.092Z,15.05
2023-05-17T03:02:18.206Z,14.75
2023-05-17T03:05:07.052Z,14.98
2023-05-17T03:07:55.036Z,14.55
2023-05-17T03:10:44.415Z,15.38
2023-05-17T03:13:32.390Z,14.27
2023-05-17T03:16:20.785Z,13.63
2023-05-17T03:19:08.980Z,14.73
2023-05-17T03:21:57.073Z,14.55
2023-05-17T03:24:45.124Z,14.13
2023-05-17T03:27:34.664Z,14.57
2023-05-17T03:30:22.769Z,15.40
2023-05-17T03:33:10.809Z,15.05
2023-05-17T03:35:58.901Z,14.27
2023-05-17T03:38:46.864Z,15.15
2023-05-17T03:41:35.047Z,15.80
2023-05-17T03:44:24.434Z,15.60
2023-05-17T03:47:12.428Z,15.77
2023-05-17T03:50:00.723Z,15.52
2023-05-17T03:52:48.750Z,15.57
2023-05-17T03:55:36.770Z,16.30
2023-05-17T03:58:24.806Z,17.00
2023-05-17T04:01:14.142Z,14.85
2023-05-17T04:04:04.593Z,13.85
2023-05-17T04:06:52.641Z,15.85
2023-05-17T04:09:40.616Z,15.25
2023-05-17T04:12:28.802Z,14.65
2023-05-17T04:15:16.787Z,15.60
2023-05-17T04:18:06.668Z,15.75
2023-05-17T04:20:56.327Z,15.93
2023-05-17T04:23:44.295Z,16.13
2023-05-17T04:26:32.278Z,14.50
2023-05-17T04:29:20.641Z,14.05
2023-05-17T04:32:09.921Z,13.90
2023-05-17T04:34:59.304Z,14.50
2023-05-17T04:37:47.330Z,14.20
2023-05-17T04:40:35.375Z,14.68
2023-05-17T04:43:23.385Z,12.82
2023-05-17T04:46:11.659Z,14.75
2023-05-17T04:49:00.362Z,14.68
2023-05-17T04:51:50.267Z,15.05
2023-05-17T04:54:38.220Z,15.52
2023-05-17T04:57:26.316Z,14.18
2023-05-17T05:00:15.443Z,13.95
2023-05-17T05:03:05.062Z,13.70
2023-05-17T05:05:53.196Z,14.60
2023-05-17T05:08:42.582Z,14.50
2023-05-17T05:11:31.526Z,13.27
2023-05-17T05:14:19.476Z,13.60
2023-05-17T05:17:07.547Z,12.93
2023-05-17T05:19:55.646Z,13.77
2023-05-17T05:22:43.655Z,14.55
2023-05-17T05:25:33.266Z,14.57
2023-05-17T05:28:21.252Z,13.70
2023-05-17T05:31:09.246Z,13.32
2023-05-17T05:33:58.142Z,13.48
2023-05-17T05:36:46.268Z,15.48
2023-05-17T05:39:34.224Z,13.93
2023-05-17T05:42:23.621Z,19.45
2023-05-17T05:45:13.401Z,16.05
2023-05-17T05:48:01.649Z,24.83
2023-05-17T05:50:49.806Z,15.20
2023-05-17T05:53:37.846Z,17.00
2023-05-17T05:56:27.671Z,19.33
2023-05-17T05:59:17.079Z,17.90
2023-05-17T06:02:05.367Z,17.95
2023-05-17T06:04:53.344Z,20.45
2023-05-17T06:07:41.322Z,16.75
2023-05-17T06:10:29.555Z,16.02
2023-05-17T06:13:17.826Z,19.27
2023-05-17T06:16:07.711Z,18.67
2023-05-17T06:18:56.387Z,18.35
2023-05-17T06:21:44.803Z,17.40
2023-05-17T06:24:33.259Z,15.80
2023-05-17T06:27:21.439Z,18.42
2023-05-17T06:30:10.770Z,16.38
2023-05-17T06:33:00.332Z,16.50
2023-05-17T06:38:42.549Z,18.13
2023-05-17T06:41:31.576Z,19.23
2023-05-17T06:44:19.572Z,18.00
2023-05-17T06:47:07.654Z,20.33
2023-05-17T06:49:57.056Z,21.10
2023-05-17T06:52:45.198Z,22.63
2023-05-17T06:55:33.221Z,22.70
2023-05-17T06:58:21.181Z,24.80
2023-05-17T07:01:09.200Z,25.13
2023-05-17T07:03:57.475Z,24.50
2023-05-17T07:06:46.999Z,23.63
2023-05-17T07:09:34.993Z,23.15
2023-05-17T07:12:23.047Z,23.05
2023-05-17T07:15:12.074Z,24.35
2023-05-17T07:18:00.923Z,26.08
2023-05-17T07:20:49.053Z,22.67
2023-05-17T07:23:38.489Z,23.17
2023-05-17T07:26:26.692Z,23.98
2023-05-17T07:29:14.666Z,23.17
2023-05-17T07:32:02.744Z,26.17
2023-05-17T07:34:50.732Z,22.70
2023-05-17T07:37:38.694Z,23.05
2023-05-17T07:40:28.051Z,22.88
2023-05-17T07:43:16.210Z,21.67
2023-05-17T07:46:04.204Z,20.83
2023-05-17T07:48:52.475Z,18.92
2023-05-17T07:51:40.675Z,18.20
2023-05-17T07:54:28.829Z,17.10
2023-05-17T07:57:18.669Z,19.25
2023-05-17T08:00:08.876Z,18.73
2023-05-17T08:02:57.844Z,17.58
2023-05-17T08:05:45.926Z,16.98
2023-05-17T08:08:34.027Z,18.30
2023-05-17T08:11:22.023Z,16.13
2023-05-17T08:14:11.418Z,17.55
2023-05-17T08:16:59.479Z,15.32
2023-05-17T08:19:47.503Z,17.20
2023-05-17T08:22:35.524Z,16.83
2023-05-17T08:25:23.641Z,17.95
2023-05-17T08:28:11.625Z,19.58
2023-05-17T08:31:02.102Z,18.42
2023-05-17T08:33:50.150Z,20.75
2023-05-17T08:36:38.333Z,20.38
2023-05-17T08:39:26.481Z,21.30
2023-05-17T08:42:16.106Z,21.08
2023-05-17T08:45:04.565Z,21.23
2023-05-17T08:47:55.019Z,22.45
2023-05-17T08:50:43.921Z,21.20
2023-05-17T08:53:32.004Z,18.23
2023-05-17T08:56:23.133Z,23.60
2023-05-17T08:59:11.776Z,22.50
2023-05-17T09:02:00.634Z,23.63
2023-05-17T09:04:55.895Z,23.38
2023-05-17T09:07:44.123Z,23.38
2023-05-17T09:10:32.156Z,27.38
2023-05-17T09:13:20.213Z,23.08
2023-05-17T09:16:15.136Z,26.13
2023-05-17T09:19:05.569Z,24.67
2023-05-17T09:21:56.924Z,25.33
2023-05-17T09:24:45.025Z,26.45
2023-05-17T09:27:33.409Z,25.25
2023-05-17T09:30:28.102Z,22.35
2023-05-17T09:33:18.571Z,27.70
2023-05-17T09:36:17.280Z,24.95
2023-05-17T09:39:12.146Z,25.83
2023-05-17T09:42:01.163Z,25.05
2023-05-17T09:44:51.095Z,23.08
2023-05-17T09:47:39.054Z,27.80
2023-05-17T09:50:27.137Z,25.70
2023-05-17T09:53:26.104Z,25.13
2023-05-17T09:56:17.486Z,25.10
2023-05-17T09:59:11.794Z,24.25
2023-05-17T10:02:01.814Z,26.50
2023-05-17T10:04:51.797Z,27.45
2023-05-17T10:07:40.079Z,25.95
2023-05-17T10:10:28.837Z,27.50
2023-05-17T10:13:22.290Z,26.48
2023-05-17T10:16:11.008Z,26.67
2023-05-17T10:18:59.282Z,24.27
2023-05-17T10:21:49.313Z,23.13
2023-05-17T10:24:38.260Z,22.30
2023-05-17T10:27:27.229Z,20.83
2023-05-17T10:30:17.642Z,20.95
2023-05-17T10:33:06.029Z,21.45
2023-05-17T10:35:56.093Z,22.25
2023-05-17T10:38:44.185Z,24.25
2023-05-17T10:41:35.059Z,21.58
2023-05-17T10:44:23.858Z,24.77
2023-05-17T10:47:15.455Z,25.15
2023-05-17T10:50:10.272Z,25.65
2023-05-17T10:53:00.670Z,22.92
2023-05-17T10:55:48.660Z,22.27
2023-05-17T10:58:36.645Z,19.23
2023-05-17T11:02:09.207Z,18.58
2023-05-17T11:05:00.483Z,19.83
2023-05-17T11:07:49.898Z,20.52
2023-05-17T11:10:38.165Z,24.10
2023-05-17T11:13:28.491Z,20.38
2023-05-17T11:16:18.355Z,20.95
2023-05-17T11:19:11.614Z,19.40
2023-05-17T11:22:12.148Z,18.27
2023-05-17T11:25:02.577Z,18.95
2023-05-17T11:27:52.769Z,19.88
2023-05-17T11:30:51.301Z,18.48
2023-05-17T11:33:40.827Z,18.92
2023-05-17T11:36:28.841Z,17.13
2023-05-17T11:39:21.674Z,16.85
2023-05-17T11:42:26.308Z,17.02
2023-05-17T11:45:14.474Z,17.02
2023-05-17T11:48:02.702Z,22.08
2023-05-17T11:50:52.388Z,19.70
2023-05-17T11:53:41.477Z,18.73
2023-05-17T11:59:30.393Z,17.15
2023-05-17T12:02:28.684Z,20.10
2023-05-17T12:05:21.270Z,18.17
2023-05-17T12:08:09.290Z,18.30
2023-05-17T12:10:57.646Z,16.58
2023-05-17T12:13:49.172Z,17.08
2023-05-17T12:16:38.005Z,16.70
2023-05-17T12:19:28.044Z,18.27
2023-05-17T12:22:16.127Z,20.02
2023-05-17T12:25:04.140Z,18.65
2023-05-17T12:27:52.211Z,16.75
2023-05-17T12:30:41.840Z,17.55
2023-05-17T12:33:32.320Z,19.05
2023-05-17T12:36:20.571Z,14.50
2023-05-17T12:39:10.151Z,18.10
2023-05-17T12:41:58.327Z,19.48
2023-05-17T12:44:46.496Z,19.40
2023-05-17T12:47:36.031Z,17.05
2023-05-17T12:50:27.543Z,18.60
2023-05-17T12:53:15.843Z,19.92
2023-05-17T12:56:03.983Z,18.50
2023-05-17T12:59:12.099Z,17.70
2023-05-17T13:02:00.789Z,17.80
2023-05-17T13:04:50.522Z,16.70
2023-05-17T13:07:38.535Z,17.73
2023-05-17T13:10:28.843Z,17.67
2023-05-17T13:13:20.534Z,15.00
2023-05-17T13:16:09.319Z,13.65
2023-05-17T13:18:57.474Z,12.68
2023-05-17T13:21:46.952Z,13.18
2023-05-17T13:24:36.288Z,10.60
2023-05-17T13:27:24.325Z,11.07
2023-05-17T13:30:12.968Z,10.27
2023-05-17T13:33:01.110Z,10.93
2023-05-17T13:35:49.212Z,10.32
2023-05-17T13:38:38.642Z,9.35
2023-05-17T13:41:26.695Z,9.52
2023-05-17T13:44:14.762Z,9.07
2023-05-17T13:47:02.910Z,9.95
2023-05-17T13:49:50.941Z,7.30
2023-05-17T13:52:38.978Z,8.90
2023-05-17T13:55:28.551Z,7.18
2023-05-17T13:58:18.007Z,7.97
2023-05-17T14:01:06.600Z,7.90
2023-05-17T14:03:55.315Z,8.60
2023-05-17T14:06:44.353Z,7.53
2023-05-17T14:09:34.636Z,7.40
2023-05-17T14:12:24.105Z,7.35
2023-05-17T14:15:12.568Z,6.93
2023-05-17T14:18:00.729Z,6.32
2023-05-17T14:20:48.752Z,5.72
2023-05-17T14:23:36.849Z,6.53
2023-05-17T14:26:24.902Z,6.60
2023-05-17T14:29:14.453Z,6.80
2023-05-17T14:32:02.505Z,7.18
2023-05-17T14:34:50.806Z,6.68
2023-05-17T14:37:38.809Z,6.45
2023-05-17T14:40:26.772Z,8.23
2023-05-17T14:43:14.835Z,8.25
2023-05-17T14:46:04.238Z,7.85
2023-05-17T14:48:52.718Z,8.23
2023-05-17T14:51:41.253Z,8.20
2023-05-17T14:54:31.165Z,7.88
2023-05-17T14:57:21.272Z,7.07
2023-05-17T15:00:11.300Z,6.72
2023-05-17T15:03:01.198Z,7.82
2023-05-17T15:05:54.764Z,6.88
2023-05-17T15:08:42.836Z,7.57
2023-05-17T15:11:31.392Z,7.13
2023-05-17T15:14:22.526Z,6.63
2023-05-17T15:17:10.485Z,6.35
2023-05-17T15:19:59.991Z,7.13
2023-05-17T15:22:48.312Z,6.78
2023-05-17T15:25:39.116Z,6.47
2023-05-17T15:28:27.254Z,6.05
2023-05-17T15:31:15.223Z,6.40
2023-05-17T15:34:03.266Z,6.95
2023-05-17T15:36:52.712Z,6.85
2023-05-17T15:39:41.239Z,6.97
2023-05-17T15:42:29.260Z,6.35
2023-05-17T15:45:17.260Z,6.00
2023-05-17T15:48:06.896Z,6.43
2023-05-17T15:50:54.992Z,6.50
2023-05-17T15:53:44.415Z,6.40
2023-05-17T15:56:32.369Z,6.40
2023-05-17T15:59:20.396Z,6.55
2023-05-17T16:02:08.465Z,7.38
2023-05-17T16:04:56.480Z,7.38
2023-05-17T16:07:44.440Z,6.82
2023-05-17T16:10:33.848Z,7.32
2023-05-17T16:13:21.892Z,6.97
2023-05-17T16:16:10.697Z,7.50
2023-05-17T16:18:58.741Z,8.63
2023-05-17T16:21:50.398Z,7.65
2023-05-17T16:24:38.826Z,9.25
2023-05-17T16:27:28.332Z,8.73
2023-05-17T16:30:17.010Z,8.45
2023-05-17T16:33:06.905Z,8.68
2023-05-17T16:35:56.461Z,8.15
2023-05-17T16:38:44.670Z,7.20
2023-05-17T16:41:33.529Z,10.02
2023-05-17T16:44:23.271Z,11.15
2023-05-17T16:47:11.378Z,12.10
2023-05-17T16:50:01.409Z,11.38
2023-05-17T16:52:49.464Z,13.98
2023-05-17T16:55:37.593Z,13.25
2023-05-17T16:58:26.153Z,11.68
2023-05-17T17:01:16.104Z,11.10
2023-05-17T17:04:04.483Z,11.32
2023-05-17T17:06:52.594Z,10.98
2023-05-17T17:09:40.584Z,7.72
2023-05-17T17:12:28.595Z,7.93
2023-05-17T17:15:16.944Z,8.73
2023-05-17T17:18:06.676Z,11.45
2023-05-17T17:20:54.976Z,11.07
2023-05-17T17:23:43.195Z,11.18
2023-05-17T17:26:31.278Z,14.30
2023-05-17T17:29:19.281Z,12.68
2023-05-17T17:32:08.607Z,11.88
2023-05-17T17:34:58.108Z,10.18
2023-05-17T17:37:46.192Z,11.73
2023-05-17T17:40:34.247Z,11.27
2023-05-17T17:43:22.466Z,9.82
2023-05-17T17:46:10.673Z,12.25
2023-05-17T17:48:58.751Z,11.63
2023-05-17T17:51:48.158Z,11.02
2023-05-17T17:54:36.127Z,11.48
2023-05-17T17:57:24.066Z,9.82
2023-05-17T18:00:16.151Z,10.43
2023-05-17T18:03:04.242Z,11.32
2023-05-17T18:05:52.238Z,12.63
2023-05-17T18:08:43.663Z,15.23
2023-05-17T18:11:31.712Z,11.18
2023-05-17T18:14:19.734Z,11.82
2023-05-17T18:17:08.219Z,8.90
2023-05-17T18:19:56.307Z,10.77
2023-05-17T18:22:44.379Z,10.63
2023-05-17T18:25:34.111Z,10.38
2023-05-17T18:28:33.898Z,10.95
2023-05-17T18:31:29.710Z,9.55
2023-05-17T18:34:19.370Z,9.90
2023-05-17T18:37:07.413Z,11.98
2023-05-17T18:39:55.505Z,9.98
2023-05-17T18:42:44.953Z,9.65
2023-05-17T18:45:36.331Z,9.98
2023-05-17T18:48:25.290Z,11.13
2023-05-17T18:51:15.451Z,10.27
2023-05-17T18:54:03.854Z,9.95
2023-05-17T18:56:51.916Z,9.05
2023-05-17T18:59:41.284Z,8.68
2023-05-17T19:02:29.320Z,9.45
2023-05-17T19:05:17.435Z,9.68
2023-05-17T19:08:05.604Z,10.27
2023-05-17T19:10:53.659Z,8.82
2023-05-17T19:13:42.030Z,9.68
2023-05-17T19:16:31.979Z,10.70
2023-05-17T19:19:22.273Z,11.90
2023-05-17T19:22:11.236Z,12.30
2023-05-17T19:25:00.339Z,10.93
2023-05-17T19:27:48.457Z,11.80
2023-05-17T19:30:37.054Z,12.60
2023-05-17T19:33:26.887Z,10.63
2023-05-17T19:36:15.098Z,10.30
2023-05-17T19:39:03.610Z,11.23
2023-05-17T19:41:51.895Z,11.80
2023-05-17T19:44:40.051Z,11.93
2023-05-17T19:47:28.421Z,12.68
2023-05-17T19:50:18.140Z,11.75
2023-05-17T19:53:06.898Z,11.82
2023-05-17T19:55:55.705Z,10.80
2023-05-17T19:58:43.830Z,11.20
2023-05-17T20:01:32.289Z,12.68
2023-05-17T20:04:20.688Z,10.82
2023-05-17T20:07:10.252Z,12.32
2023-05-17T20:09:58.449Z,11.15
2023-05-17T20:12:46.830Z,11.25
2023-05-17T20:15:35.033Z,11.13
2023-05-17T20:18:23.285Z,11.30
2023-05-17T20:21:12.852Z,10.27
2023-05-17T20:24:04.068Z,10.82
2023-05-17T20:26:52.156Z,10.55
2023-05-17T20:29:41.097Z,11.57
2023-05-17T20:32:29.291Z,11.98
2023-05-17T20:35:17.396Z,10.68
2023-05-17T20:38:05.394Z,10.10
2023-05-17T20:40:55.594Z,10.15
2023-05-17T20:43:46.325Z,11.00
2023-05-17T20:46:35.597Z,10.82
2023-05-17T20:49:23.660Z,10.73
2023-05-17T20:52:11.675Z,10.27
2023-05-17T20:54:59.608Z,11.50
2023-05-17T20:57:49.015Z,9.93
2023-05-17T21:00:38.037Z,9.90
2023-05-17T21:03:28.222Z,10.10
2023-05-17T21:06:16.507Z,10.18
2023-05-17T21:09:04.587Z,10.98
2023-05-17T21:11:53.106Z,9.18
2023-05-17T21:14:42.543Z,11.00
2023-05-17T21:17:30.545Z,11.35
2023-05-17T21:20:18.816Z,10.38
2023-05-17T21:23:06.873Z,9.82
2023-05-17T21:25:54.903Z,11.30
2023-05-17T21:28:42.924Z,10.57
2023-05-17T21:31:32.809Z,10.80
2023-05-17T21:34:20.861Z,8.98
2023-05-17T21:37:08.836Z,9.25
2023-05-17T21:39:56.792Z,9.10
2023-05-17T21:42:44.812Z,8.90
2023-05-17T21:45:32.814Z,9.52
2023-05-17T21:48:22.210Z,9.27
2023-05-17T21:51:10.213Z,9.35
2023-05-17T21:53:58.294Z,9.98
2023-05-17T21:56:46.335Z,10.43
2023-05-17T21:59:34.521Z,9.77
2023-05-17T22:02:22.585Z,9.60
2023-05-17T22:05:12.508Z,10.38
2023-05-17T22:08:00.934Z,9.85
2023-05-17T22:10:50.264Z,10.50
2023-05-17T22:13:38.388Z,10.38
2023-05-17T22:16:26.525Z,10.93
2023-05-17T22:19:14.610Z,10.00
2023-05-17T22:22:03.993Z,11.15
2023-05-17T22:24:54.028Z,11.50
2023-05-17T22:27:42.072Z,10.70
2023-05-17T22:30:30.181Z,11.30
2023-05-17T22:33:18.302Z,9.63
2023-05-17T22:36:06.675Z,11.27
2023-05-17T22:38:56.780Z,11.02
2023-05-17T22:41:44.775Z,10.10
2023-05-17T22:44:33.812Z,10.35
2023-05-17T22:47:23.039Z,9.68
2023-05-17T22:50:12.180Z,9.52
2023-05-17T22:53:01.144Z,8.95
2023-05-17T22:55:50.658Z,9.10
2023-05-17T22:58:38.692Z,12.75
2023-05-17T23:01:26.828Z,12.45
2023-05-17T23:04:14.880Z,10.38
2023-05-17T23:07:03.549Z,8.32
2023-05-17T23:09:53.825Z,10.57
2023-05-17T23:12:43.180Z,8.52
2023-05-17T23:15:34.495Z,9.70
2023-05-17T23:18:22.486Z,8.63
2023-05-17T23:21:12.127Z,9.52
2023-05-17T23:24:00.925Z,9.05
2023-05-17T23:26:48.922Z,9.27
2023-05-17T23:29:41.482Z,9.38
2023-05-17T23:32:32.440Z,9.95
2023-05-17T23:35:20.555Z,10.23
2023-05-17T23:38:08.529Z,10.30
2023-05-17T23:40:58.295Z,10.05
2023-05-17T23:43:46.894Z,10.43
2023-05-17T23:46:36.523Z,10.40
2023-05-17T23:49:24.633Z,9.23
2023-05-17T23:52:12.649Z,10.10
2023-05-17T23:55:01.667Z,10.73
2023-05-17T23:57:49.657Z,8.95
